Europa — C6QK8 — position and weather

sailwx.info

Track history (hours):
 
Tides and Currents Weather Stations Pressure Air Temp Water Temp Dewpoint Dewpoint Depression Visibility Wind Speed Wind Dir Waves Ship Positions

Europa

Operator: Hapag-Lloyd Container Line

Last reported at 2018-May-27 03:29 UTC. Time now 2018-May-27 08:15 UTC.
Position N 43°10' E 006°43'.

Length 199 m; draft 6.2 m.

Type: Passenger vessel. MMSI: 308007000.

Date/timePositionNaut miles runAvg speedWind from/ knotsBaromVisibWave heightAir tempDewpointWater temp
2018-May-27 03:29N 43°10' E 006°43'711.6
2018-May-27 02:51N 43°14' E 006°51'412.0
2018-May-27 02:30N 43°16' E 006°56'611.9
2018-May-27 02:00N 43°19' E 007°03'611.8
2018-May-27 01:30N 43°22' E 007°10'612.1
2018-May-27 01:00N 43°25' E 007°17'612.0
2018-May-27 00:30N 43°29' E 007°23'612.4
2018-May-27 00:00N 43°31' E 007°31'612.6
2018-May-26 23:30N 43°34' E 007°39'612.3
2018-May-26 23:00N 43°37' E 007°46'612.2
2018-May-26 22:30N 43°40' E 007°53'612.2
2018-May-26 22:00N 43°43' E 008°01'612.3
2018-May-26 21:29N 43°47' E 008°08'612.4
2018-May-26 21:00N 43°50' E 008°15'611.5
2018-May-26 20:30N 43°53' E 008°22'611.3
2018-May-26 20:00N 43°56' E 008°29'612.7
2018-May-26 19:30N 43°59' E 008°37'612.7
2018-May-26 19:00N 44°02' E 008°44'612.7
2018-May-26 18:30N 44°06' E 008°51'612.6
2018-May-26 18:00N 44°10' E 008°58'5 9.6
2018-May-26 17:30N 44°12' E 009°04'510.1
2018-May-26 17:00N 44°13' E 009°11'5 9.9
2018-May-26 16:30N 44°17' E 009°15'2 2.8
2018-May-26 15:56N 44°18' E 009°14'0 0.0
2018-May-26 15:29N 44°18' E 009°14'0 0.0
2018-May-26 14:59N 44°18' E 009°14'0 0.0
2018-May-26 14:26N 44°18' E 009°14'0 0.0
2018-May-26 13:59N 44°18' E 009°14'0 0.0
2018-May-26 13:26N 44°18' E 009°14'0 0.0
2018-May-26 12:56N 44°18' E 009°14'0 0.0
2018-May-26 12:29N 44°18' E 009°14'0 0.0
2018-May-26 11:59N 44°18' E 009°14'0 0.0
2018-May-26 11:29N 44°19' E 009°14'0 0.1
2018-May-26 10:59N 44°18' E 009°14'0 0.0
2018-May-26 10:29N 44°18' E 009°14'0 0.0
2018-May-26 09:59N 44°18' E 009°14'0 0.0
2018-May-26 09:29N 44°18' E 009°14'0 0.1
2018-May-26 08:56N 44°19' E 009°14'0 0.1
2018-May-26 08:29N 44°18' E 009°14'0 0.0
2018-May-26 07:59N 44°18' E 009°14'0 0.0
2018-May-26 07:29N 44°18' E 009°14'0 0.0
2018-May-26 06:59N 44°18' E 009°14'0 0.0
2018-May-26 06:29N 44°18' E 009°14'4 4.1
2018-May-26 05:31N 44°15' E 009°16'5 9.0
2018-May-26 05:00N 44°13' E 009°11'510.3
2018-May-26 04:30N 44°10' E 009°05'510.1
2018-May-26 04:01N 44°08' E 008°58'5 9.9
2018-May-26 03:30N 44°06' E 008°52'5 9.8
2018-May-26 03:00N 44°03' E 008°46'5 9.3
2018-May-26 02:30N 44°01' E 008°41'510.5
2018-May-26 02:00N 43°58' E 008°34'5 9.9
2018-May-26 01:31N 43°56' E 008°29'5 9.6
2018-May-26 01:01N 43°53' E 008°23'5 9.6
2018-May-26 00:30N 43°51' E 008°17'5 9.3
2018-May-26 00:00N 43°49' E 008°11'4 9.0
2018-May-25 23:31N 43°47' E 008°06'5 9.3
2018-May-25 23:00N 43°46' E 007°60'5 9.5
2018-May-25 22:31N 43°45' E 007°53'5 9.1
2018-May-25 22:01N 43°44' E 007°47'4 8.8
2018-May-25 21:30N 43°42' E 007°41'4 8.8
2018-May-25 21:00N 43°41' E 007°35'4 8.7
2018-May-25 20:30N 43°40' E 007°29'4 8.4
2018-May-25 20:00N 43°39' E 007°24'4 8.1
2018-May-25 19:30N 43°39' E 007°18'2 0.6
2018-May-25 15:49N 43°42' E 007°17'0 0.0
2018-May-25 14:25N 43°42' E 007°17'0 0.0
2018-May-25 06:25N 43°42' E 007°17'0 0.0
2018-May-25 03:41N 43°42' E 007°17'0 1.5
2018-May-25 03:31N 43°41' E 007°17'510.1
2018-May-25 03:00N 43°37' E 007°21'5 9.4
2018-May-25 02:30N 43°34' E 007°26'4 8.5
2018-May-25 02:00N 43°31' E 007°30'4 8.3
2018-May-25 01:28N 43°27' E 007°34'4 8.1
2018-May-25 00:59N 43°25' E 007°38'3 7.1
2018-May-25 00:30N 43°22' E 007°41'6 7.2
2018-May-24 23:37N 43°18' E 007°47'2 7.2
2018-May-24 23:24N 43°17' E 007°49'5 7.2
2018-May-24 22:45N 43°13' E 007°53'2 7.4
2018-May-24 22:30N 43°12' E 007°55'4 7.8
2018-May-24 22:00N 43°09' E 007°59'4 8.1
2018-May-24 21:30N 43°07' E 008°03'4 7.9
2018-May-24 21:00N 43°04' E 008°07'4 7.8
2018-May-24 20:30N 43°01' E 008°11'4 7.7
2018-May-24 20:00N 42°58' E 008°14'4 7.7
2018-May-24 19:30N 42°56' E 008°18'4 7.8
2018-May-24 19:00N 42°53' E 008°22'4 7.7
2018-May-24 18:30N 42°50' E 008°26'4 7.9
2018-May-24 18:00N 42°47' E 008°29'4 7.9
2018-May-24 17:30N 42°45' E 008°33'4 7.8
2018-May-24 17:00N 42°42' E 008°37'4 7.9
2018-May-24 16:30N 42°39' E 008°41'4 7.8
2018-May-24 16:00N 42°36' E 008°45'3 5.6
2018-May-24 15:29N 42°34' E 008°46'0 0.1
2018-May-24 14:59N 42°34' E 008°46'0 0.1
2018-May-24 14:29N 42°34' E 008°46'0 0.0
2018-May-24 06:05N 42°34' E 008°46'0 0.0
2018-May-24 05:44N 42°34' E 008°46'0 0.0
2018-May-24 05:26N 42°34' E 008°46'19 7.4
2018-May-24 02:56N 42°22' E 008°27'410.3
2018-May-24 02:31N 42°18' E 008°28'  
2018-May-20 20:05N 37°17' E 015°23'110.7
2018-May-20 19:59N 37°18' E 015°22'33 2.3
2018-May-20 06:01N 37°51' E 015°27'011.6
2018-May-20 05:59N 37°51' E 015°27'1114.0
2018-May-20 05:09N 37°51' E 015°42'215.0
2018-May-20 05:00N 37°51' E 015°45'814.9
2018-May-20 04:29N 37°51' E 015°55'  
Track history (hours):
 
Tides and Currents Weather Stations Pressure Air Temp Water Temp Dewpoint Dewpoint Depression Visibility Wind Speed Wind Dir Waves Ship Positions

Europa

Operator: Hapag-Lloyd Container Line

Last reported at 2018-May-27 03:29 UTC. Time now 2018-May-27 08:15 UTC.
Position N 43°10' E 006°43'.

Length 199 m; draft 6.2 m.

Type: Passenger vessel. MMSI: 308007000.

Date/timePositionNaut miles runAvg speedWind from/ knotsBaromVisibWave heightAir tempDewpointWater temp
2018-May-27 03:29N 43°10' E 006°43'711.6
2018-May-27 02:51N 43°14' E 006°51'412.0
2018-May-27 02:30N 43°16' E 006°56'611.9
2018-May-27 02:00N 43°19' E 007°03'611.8
2018-May-27 01:30N 43°22' E 007°10'612.1
2018-May-27 01:00N 43°25' E 007°17'612.0
2018-May-27 00:30N 43°29' E 007°23'612.4
2018-May-27 00:00N 43°31' E 007°31'612.6
2018-May-26 23:30N 43°34' E 007°39'612.3
2018-May-26 23:00N 43°37' E 007°46'612.2
2018-May-26 22:30N 43°40' E 007°53'612.2
2018-May-26 22:00N 43°43' E 008°01'612.3
2018-May-26 21:29N 43°47' E 008°08'612.4
2018-May-26 21:00N 43°50' E 008°15'611.5
2018-May-26 20:30N 43°53' E 008°22'611.3
2018-May-26 20:00N 43°56' E 008°29'612.7
2018-May-26 19:30N 43°59' E 008°37'612.7
2018-May-26 19:00N 44°02' E 008°44'612.7
2018-May-26 18:30N 44°06' E 008°51'612.6
2018-May-26 18:00N 44°10' E 008°58'5 9.6
2018-May-26 17:30N 44°12' E 009°04'510.1
2018-May-26 17:00N 44°13' E 009°11'5 9.9
2018-May-26 16:30N 44°17' E 009°15'2 2.8
2018-May-26 15:56N 44°18' E 009°14'0 0.0
2018-May-26 15:29N 44°18' E 009°14'0 0.0
2018-May-26 14:59N 44°18' E 009°14'0 0.0
2018-May-26 14:26N 44°18' E 009°14'0 0.0
2018-May-26 13:59N 44°18' E 009°14'0 0.0
2018-May-26 13:26N 44°18' E 009°14'0 0.0
2018-May-26 12:56N 44°18' E 009°14'0 0.0
2018-May-26 12:29N 44°18' E 009°14'0 0.0
2018-May-26 11:59N 44°18' E 009°14'0 0.0
2018-May-26 11:29N 44°19' E 009°14'0 0.1
2018-May-26 10:59N 44°18' E 009°14'0 0.0
2018-May-26 10:29N 44°18' E 009°14'0 0.0
2018-May-26 09:59N 44°18' E 009°14'0 0.0
2018-May-26 09:29N 44°18' E 009°14'0 0.1
2018-May-26 08:56N 44°19' E 009°14'0 0.1
2018-May-26 08:29N 44°18' E 009°14'0 0.0
2018-May-26 07:59N 44°18' E 009°14'0 0.0
2018-May-26 07:29N 44°18' E 009°14'0 0.0
2018-May-26 06:59N 44°18' E 009°14'0 0.0
2018-May-26 06:29N 44°18' E 009°14'4 4.1
2018-May-26 05:31N 44°15' E 009°16'5 9.0
2018-May-26 05:00N 44°13' E 009°11'510.3
2018-May-26 04:30N 44°10' E 009°05'510.1
2018-May-26 04:01N 44°08' E 008°58'5 9.9
2018-May-26 03:30N 44°06' E 008°52'5 9.8
2018-May-26 03:00N 44°03' E 008°46'5 9.3
2018-May-26 02:30N 44°01' E 008°41'510.5
2018-May-26 02:00N 43°58' E 008°34'5 9.9
2018-May-26 01:31N 43°56' E 008°29'5 9.6
2018-May-26 01:01N 43°53' E 008°23'5 9.6
2018-May-26 00:30N 43°51' E 008°17'5 9.3
2018-May-26 00:00N 43°49' E 008°11'4 9.0
2018-May-25 23:31N 43°47' E 008°06'5 9.3
2018-May-25 23:00N 43°46' E 007°60'5 9.5
2018-May-25 22:31N 43°45' E 007°53'5 9.1
2018-May-25 22:01N 43°44' E 007°47'4 8.8
2018-May-25 21:30N 43°42' E 007°41'4 8.8
2018-May-25 21:00N 43°41' E 007°35'4 8.7
2018-May-25 20:30N 43°40' E 007°29'4 8.4
2018-May-25 20:00N 43°39' E 007°24'4 8.1
2018-May-25 19:30N 43°39' E 007°18'2 0.6
2018-May-25 15:49N 43°42' E 007°17'0 0.0
2018-May-25 14:25N 43°42' E 007°17'0 0.0
2018-May-25 06:25N 43°42' E 007°17'0 0.0
2018-May-25 03:41N 43°42' E 007°17'0 1.5
2018-May-25 03:31N 43°41' E 007°17'510.1
2018-May-25 03:00N 43°37' E 007°21'5 9.4
2018-May-25 02:30N 43°34' E 007°26'4 8.5
2018-May-25 02:00N 43°31' E 007°30'4 8.3
2018-May-25 01:28N 43°27' E 007°34'4 8.1
2018-May-25 00:59N 43°25' E 007°38'3 7.1
2018-May-25 00:30N 43°22' E 007°41'6 7.2
2018-May-24 23:37N 43°18' E 007°47'2 7.2
2018-May-24 23:24N 43°17' E 007°49'5 7.2
2018-May-24 22:45N 43°13' E 007°53'2 7.4
2018-May-24 22:30N 43°12' E 007°55'4 7.8
2018-May-24 22:00N 43°09' E 007°59'4 8.1
2018-May-24 21:30N 43°07' E 008°03'4 7.9
2018-May-24 21:00N 43°04' E 008°07'4 7.8
2018-May-24 20:30N 43°01' E 008°11'4 7.7
2018-May-24 20:00N 42°58' E 008°14'4 7.7
2018-May-24 19:30N 42°56' E 008°18'4 7.8
2018-May-24 19:00N 42°53' E 008°22'4 7.7
2018-May-24 18:30N 42°50' E 008°26'4 7.9
2018-May-24 18:00N 42°47' E 008°29'4 7.9
2018-May-24 17:30N 42°45' E 008°33'4 7.8
2018-May-24 17:00N 42°42' E 008°37'4 7.9
2018-May-24 16:30N 42°39' E 008°41'4 7.8
2018-May-24 16:00N 42°36' E 008°45'3 5.6
2018-May-24 15:29N 42°34' E 008°46'0 0.1
2018-May-24 14:59N 42°34' E 008°46'0 0.1
2018-May-24 14:29N 42°34' E 008°46'0 0.0
2018-May-24 06:05N 42°34' E 008°46'0 0.0
2018-May-24 05:44N 42°34' E 008°46'0 0.0
2018-May-24 05:26N 42°34' E 008°46'19 7.4
2018-May-24 02:56N 42°22' E 008°27'410.3
2018-May-24 02:31N 42°18' E 008°28'  
2018-May-20 20:05N 37°17' E 015°23'110.7
2018-May-20 19:59N 37°18' E 015°22'33 2.3
2018-May-20 06:01N 37°51' E 015°27'011.6
2018-May-20 05:59N 37°51' E 015°27'1114.0
2018-May-20 05:09N 37°51' E 015°42'215.0
2018-May-20 05:00N 37°51' E 015°45'814.9
2018-May-20 04:29N 37°51' E 015°55'  

Dump ship's entire track history